createdAt,value
2019-05-19T00:01:23.126Z,14.40
2019-05-19T00:03:52.453Z,14.40
2019-05-19T00:06:22.087Z,14.30
2019-05-19T00:08:52.742Z,14.30
2019-05-19T00:11:22.068Z,14.20
2019-05-19T00:13:53.023Z,14.10
2019-05-19T00:16:22.438Z,14.10
2019-05-19T00:18:52.070Z,14.10
2019-05-19T00:21:21.396Z,14.00
2019-05-19T00:23:50.735Z,14.00
2019-05-19T00:26:20.307Z,14.00
2019-05-19T00:28:49.644Z,14.10
2019-05-19T00:31:19.950Z,14.10
2019-05-19T00:33:49.592Z,14.10
2019-05-19T00:36:19.692Z,14.10
2019-05-19T00:38:58.926Z,14.10
2019-05-19T00:41:28.594Z,14.10
2019-05-19T00:44:00.789Z,14.20
2019-05-19T00:46:42.186Z,14.10
2019-05-19T00:49:17.064Z,14.10
2019-05-19T00:51:46.580Z,14.20
2019-05-19T00:54:15.956Z,14.20
2019-05-19T00:56:45.631Z,14.20
2019-05-19T00:59:15.491Z,14.20
2019-05-19T01:01:46.213Z,14.20
2019-05-19T01:04:15.577Z,14.20
2019-05-19T01:07:36.396Z,14.20
2019-05-19T01:15:38.754Z,14.20
2019-05-19T01:18:20.890Z,14.10
2019-05-19T01:20:55.989Z,14.10
2019-05-19T01:23:34.979Z,14.00
2019-05-19T01:26:19.731Z,14.00
2019-05-19T01:29:06.675Z,13.90
2019-05-19T01:31:47.471Z,13.90
2019-05-19T01:34:23.457Z,13.90
2019-05-19T01:37:03.995Z,13.90
2019-05-19T01:39:40.967Z,13.80
2019-05-19T01:42:32.310Z,13.80
2019-05-19T01:45:05.223Z,13.80
2019-05-19T01:47:47.634Z,13.80
2019-05-19T01:50:22.182Z,13.80
2019-05-19T01:52:52.128Z,13.70
2019-05-19T01:55:25.086Z,13.70
2019-05-19T01:57:57.473Z,13.70
2019-05-19T02:00:40.280Z,13.70
2019-05-19T02:06:20.054Z,13.70
2019-05-19T02:22:20.499Z,13.60
2019-05-19T02:25:06.585Z,13.60
2019-05-19T02:28:23.106Z,13.60
2019-05-19T02:30:28.177Z,13.60
2019-05-19T02:37:09.319Z,13.60
2019-05-19T02:40:02.028Z,13.50
2019-05-19T02:43:05.676Z,13.50
2019-05-19T02:45:59.668Z,13.40
2019-05-19T02:51:54.320Z,13.40
2019-05-19T02:54:28.039Z,13.30
2019-05-19T02:56:58.370Z,13.20
2019-05-19T02:59:29.262Z,13.10
2019-05-19T03:02:03.889Z,13.10
2019-05-19T03:04:35.450Z,13.00
2019-05-19T03:10:24.112Z,12.90
2019-05-19T03:13:06.985Z,12.90
2019-05-19T03:15:45.302Z,12.80
2019-05-19T03:18:18.006Z,12.80
2019-05-19T03:21:08.076Z,12.80
2019-05-19T03:23:23.857Z,12.70
2019-05-19T03:25:53.761Z,12.70
2019-05-19T03:28:24.831Z,12.70
2019-05-19T03:31:18.538Z,12.70
2019-05-19T03:34:04.501Z,12.60
2019-05-19T03:36:54.398Z,12.50
2019-05-19T03:39:18.327Z,12.50
2019-05-19T03:41:50.941Z,12.50
2019-05-19T03:44:20.872Z,12.40
2019-05-19T03:46:50.992Z,12.50
2019-05-19T03:49:20.723Z,12.50
2019-05-19T03:51:50.588Z,12.50
2019-05-19T03:54:20.971Z,12.50
2019-05-19T03:56:50.822Z,12.50
2019-05-19T03:59:20.870Z,12.50
2019-05-19T04:01:50.824Z,12.50
2019-05-19T04:04:24.218Z,12.60
2019-05-19T04:06:54.685Z,12.60
2019-05-19T04:09:26.198Z,12.50
2019-05-19T04:11:56.051Z,12.60
2019-05-19T04:14:32.072Z,12.60
2019-05-19T04:17:18.288Z,12.60
2019-05-19T04:19:53.403Z,12.60
2019-05-19T04:25:25.509Z,12.60
2019-05-19T04:28:14.656Z,12.60
2019-05-19T04:30:56.472Z,12.70
2019-05-19T04:33:39.531Z,12.80
2019-05-19T04:36:16.543Z,12.80
2019-05-19T04:38:46.475Z,12.70
2019-05-19T04:41:20.391Z,12.80
2019-05-19T04:43:55.339Z,12.80
2019-05-19T04:46:24.987Z,12.80
2019-05-19T04:48:58.517Z,12.90
2019-05-19T04:51:28.875Z,13.10
2019-05-19T04:54:00.350Z,13.30
2019-05-19T04:56:30.190Z,13.40
2019-05-19T04:59:00.020Z,13.50
2019-05-19T05:01:29.490Z,13.60
2019-05-19T05:03:59.876Z,13.60
2019-05-19T05:06:29.585Z,13.70
2019-05-19T05:08:59.276Z,13.80
2019-05-19T05:11:28.754Z,13.90
2019-05-19T05:13:58.591Z,14.00
2019-05-19T05:16:28.327Z,14.10
2019-05-19T05:18:58.228Z,14.30
2019-05-19T05:21:27.706Z,14.50
2019-05-19T05:23:57.383Z,14.70
2019-05-19T05:26:26.849Z,14.80
2019-05-19T05:28:56.256Z,14.80
2019-05-19T05:31:25.951Z,14.80
2019-05-19T05:33:56.882Z,14.70
2019-05-19T05:36:27.806Z,14.70
2019-05-19T05:38:57.744Z,14.60
2019-05-19T05:41:27.140Z,14.60
2019-05-19T05:43:56.762Z,14.60
2019-05-19T05:46:26.309Z,14.60
2019-05-19T05:48:55.762Z,14.60
2019-05-19T05:51:27.162Z,14.70
2019-05-19T05:53:57.364Z,14.70
2019-05-19T05:56:27.864Z,14.70
2019-05-19T05:58:58.137Z,14.70
2019-05-19T06:01:33.757Z,14.70
2019-05-19T06:04:09.721Z,14.60
2019-05-19T06:06:41.579Z,14.70
2019-05-19T06:09:17.303Z,14.60
2019-05-19T06:11:54.748Z,14.60
2019-05-19T06:14:32.433Z,14.60
2019-05-19T06:17:02.158Z,14.60
2019-05-19T06:19:31.538Z,14.70
2019-05-19T06:22:06.444Z,14.80
2019-05-19T06:24:36.376Z,14.80
2019-05-19T06:27:08.052Z,14.80
2019-05-19T06:29:48.200Z,14.90
2019-05-19T06:32:22.602Z,14.90
2019-05-19T06:34:52.052Z,15.00
2019-05-19T06:40:11.303Z,15.30
2019-05-19T06:42:40.788Z,15.50
2019-05-19T06:45:10.684Z,15.60
2019-05-19T06:47:40.017Z,15.70
2019-05-19T06:50:10.966Z,15.80
2019-05-19T06:52:40.348Z,15.90
2019-05-19T06:55:10.845Z,16.10
2019-05-19T06:57:41.124Z,16.20
2019-05-19T07:00:12.024Z,16.20
2019-05-19T07:02:41.684Z,16.20
2019-05-19T07:05:11.206Z,16.30
2019-05-19T07:07:41.217Z,16.40
2019-05-19T07:10:10.782Z,16.40
2019-05-19T07:12:40.183Z,16.50
2019-05-19T07:15:10.329Z,16.50
2019-05-19T07:17:39.682Z,16.50
2019-05-19T07:20:09.528Z,16.50
2019-05-19T07:22:39.101Z,16.50
2019-05-19T07:25:08.878Z,16.60
2019-05-19T07:27:38.831Z,16.70
2019-05-19T07:30:09.203Z,16.70
2019-05-19T07:32:39.840Z,16.80
2019-05-19T07:35:09.658Z,16.90
2019-05-19T07:37:39.005Z,17.00
2019-05-19T07:40:09.631Z,17.20
2019-05-19T07:42:39.331Z,17.20
2019-05-19T07:45:10.772Z,17.30
2019-05-19T07:47:40.505Z,17.30
2019-05-19T07:50:09.916Z,17.50
2019-05-19T07:52:39.258Z,17.70
2019-05-19T07:55:09.098Z,17.90
2019-05-19T07:57:38.425Z,18.00
2019-05-19T08:00:09.150Z,18.30
2019-05-19T08:02:38.757Z,18.60
2019-05-19T08:05:08.378Z,18.90
2019-05-19T08:07:38.065Z,19.20
2019-05-19T08:10:07.838Z,19.40
2019-05-19T08:12:37.210Z,19.50
2019-05-19T08:15:08.441Z,19.70
2019-05-19T08:17:38.069Z,19.90
2019-05-19T08:20:07.851Z,20.10
2019-05-19T08:22:37.418Z,20.30
2019-05-19T08:25:08.466Z,20.30
2019-05-19T08:27:38.136Z,20.50
2019-05-19T08:30:09.032Z,20.60
2019-05-19T08:32:38.725Z,20.70
2019-05-19T08:35:08.403Z,20.80
2019-05-19T08:37:38.005Z,20.80
2019-05-19T08:40:08.068Z,20.90
2019-05-19T08:42:37.411Z,20.70
2019-05-19T08:45:08.807Z,20.50
2019-05-19T08:47:38.256Z,20.60
2019-05-19T08:50:07.928Z,20.70
2019-05-19T08:52:37.327Z,20.70
2019-05-19T08:55:07.116Z,20.90
2019-05-19T08:57:36.835Z,20.90
2019-05-19T09:00:07.021Z,20.90
2019-05-19T09:02:36.429Z,21.00
2019-05-19T09:05:07.240Z,20.90
2019-05-19T09:07:36.641Z,21.10
2019-05-19T09:10:08.006Z,21.00
2019-05-19T09:12:38.138Z,21.30
2019-05-19T09:15:08.762Z,21.50
2019-05-19T09:17:38.100Z,21.70
2019-05-19T09:20:07.870Z,21.80
2019-05-19T09:22:37.208Z,21.90
2019-05-19T09:25:08.626Z,21.90
2019-05-19T09:27:38.259Z,21.90
2019-05-19T09:30:14.140Z,22.10
2019-05-19T09:32:43.803Z,22.30
2019-05-19T09:35:13.831Z,22.60
2019-05-19T09:37:43.462Z,22.60
2019-05-19T09:40:13.264Z,22.80
2019-05-19T09:42:42.907Z,23.00
2019-05-19T09:45:12.938Z,23.10
2019-05-19T09:47:43.010Z,23.00
2019-05-19T09:50:14.335Z,23.00
2019-05-19T09:52:43.695Z,23.10
2019-05-19T09:55:16.114Z,23.20
2019-05-19T09:57:45.451Z,23.00
2019-05-19T10:00:15.420Z,22.80
2019-05-19T10:02:45.041Z,22.80
2019-05-19T10:05:14.865Z,23.20
2019-05-19T10:07:44.194Z,23.50
2019-05-19T10:10:16.863Z,23.80
2019-05-19T10:12:46.271Z,23.80
2019-05-19T10:15:16.147Z,23.70
2019-05-19T10:17:45.848Z,23.60
2019-05-19T10:20:15.792Z,23.60
2019-05-19T10:22:45.368Z,23.40
2019-05-19T10:25:23.211Z,23.60
2019-05-19T10:27:46.441Z,23.10
2019-05-19T10:30:16.282Z,23.30
2019-05-19T10:32:45.859Z,23.50
2019-05-19T10:35:15.719Z,23.60
2019-05-19T10:37:45.329Z,23.50
2019-05-19T10:40:15.123Z,23.40
2019-05-19T10:42:44.909Z,23.60
2019-05-19T10:45:14.832Z,23.70
2019-05-19T10:47:44.266Z,23.70
2019-05-19T10:50:14.063Z,23.70
2019-05-19T10:52:43.661Z,23.80
2019-05-19T10:55:13.387Z,23.80
2019-05-19T10:57:42.984Z,24.00
2019-05-19T11:00:12.804Z,24.10
2019-05-19T11:02:42.159Z,24.20
2019-05-19T11:05:11.925Z,24.00
2019-05-19T11:07:41.595Z,24.20
2019-05-19T11:10:11.406Z,24.40
2019-05-19T11:12:41.719Z,24.30
2019-05-19T11:15:11.639Z,24.20
2019-05-19T11:17:41.016Z,24.20
2019-05-19T11:20:10.484Z,24.20
2019-05-19T11:22:40.199Z,24.40
2019-05-19T11:25:12.128Z,24.50
2019-05-19T11:27:51.169Z,24.50
2019-05-19T11:30:20.917Z,24.60
2019-05-19T11:32:50.785Z,24.90
2019-05-19T11:35:20.797Z,24.90
2019-05-19T11:37:51.692Z,25.00
2019-05-19T11:40:30.528Z,25.30
2019-05-19T11:42:59.873Z,25.70
2019-05-19T11:45:29.383Z,25.70
2019-05-19T11:47:59.318Z,25.60
2019-05-19T11:50:29.021Z,26.40
2019-05-19T11:52:58.347Z,28.10
2019-05-19T11:55:28.074Z,29.30
2019-05-19T11:57:58.613Z,30.00
2019-05-19T12:00:33.938Z,30.40
2019-05-19T12:03:05.095Z,30.10
2019-05-19T12:05:34.674Z,29.80
2019-05-19T12:08:06.390Z,29.40
2019-05-19T12:10:35.999Z,28.40
2019-05-19T12:13:05.667Z,29.30
2019-05-19T12:15:35.141Z,29.70
2019-05-19T12:18:11.363Z,30.10
2019-05-19T12:20:43.453Z,30.00
2019-05-19T12:23:20.652Z,30.30
2019-05-19T12:25:50.559Z,31.00
2019-05-19T12:28:20.011Z,32.60
2019-05-19T12:30:59.183Z,33.70
2019-05-19T12:33:52.462Z,33.40
2019-05-19T12:36:35.703Z,33.10
2019-05-19T12:39:08.088Z,31.20
2019-05-19T12:50:47.714Z,29.50
2019-05-19T12:53:17.125Z,29.10
2019-05-19T12:55:48.266Z,29.00
2019-05-19T12:58:17.950Z,30.20
2019-05-19T13:00:47.627Z,31.60
2019-05-19T13:03:19.397Z,32.80
2019-05-19T13:05:49.106Z,33.50
2019-05-19T13:08:44.211Z,33.70
2019-05-19T13:11:17.548Z,33.70
2019-05-19T13:13:47.061Z,34.70
2019-05-19T13:16:17.943Z,35.80
2019-05-19T13:18:49.201Z,36.30
2019-05-19T13:21:18.832Z,37.40
2019-05-19T13:23:48.551Z,38.20
2019-05-19T13:26:18.757Z,37.80
2019-05-19T13:28:48.486Z,38.80
2019-05-19T13:31:17.868Z,40.10
2019-05-19T13:33:47.180Z,39.00
2019-05-19T13:36:16.819Z,38.40
2019-05-19T13:38:46.143Z,38.50
2019-05-19T13:41:15.736Z,37.50
2019-05-19T13:43:45.152Z,36.40
2019-05-19T13:46:14.498Z,35.10
2019-05-19T13:48:44.232Z,34.80
2019-05-19T13:51:13.536Z,36.10
2019-05-19T13:53:43.258Z,36.10
2019-05-19T13:56:12.956Z,36.30
2019-05-19T13:58:42.360Z,36.80
2019-05-19T14:01:26.257Z,38.00
2019-05-19T14:03:43.146Z,38.10
2019-05-19T14:06:12.471Z,38.00
2019-05-19T14:08:42.075Z,37.10
2019-05-19T14:11:11.664Z,36.00
2019-05-19T14:13:41.299Z,33.80
2019-05-19T14:16:10.912Z,31.10
2019-05-19T14:18:40.504Z,29.60
2019-05-19T14:21:09.865Z,29.10
2019-05-19T14:23:39.260Z,29.70
2019-05-19T14:26:10.048Z,32.30
2019-05-19T14:28:39.647Z,34.50
2019-05-19T14:31:09.329Z,35.10
2019-05-19T14:33:38.645Z,35.70
2019-05-19T14:36:07.992Z,33.80
2019-05-19T14:38:39.019Z,32.50
2019-05-19T14:41:08.672Z,31.50
2019-05-19T14:43:38.179Z,30.40
2019-05-19T14:46:07.511Z,29.70
2019-05-19T14:48:36.822Z,28.50
2019-05-19T14:51:06.412Z,28.10
2019-05-19T14:53:36.078Z,27.60
2019-05-19T14:56:05.674Z,27.20
2019-05-19T14:58:35.243Z,27.30
2019-05-19T15:01:05.115Z,27.40
2019-05-19T15:03:34.694Z,27.70
2019-05-19T15:06:04.151Z,28.10
2019-05-19T15:08:33.531Z,28.40
2019-05-19T15:11:03.111Z,27.70
2019-05-19T15:13:32.793Z,26.90
2019-05-19T15:16:02.534Z,26.20
2019-05-19T15:18:32.836Z,26.50
2019-05-19T15:21:02.454Z,28.30
2019-05-19T15:23:32.110Z,28.00
2019-05-19T15:26:01.832Z,26.30
2019-05-19T15:28:31.185Z,25.20
2019-05-19T15:31:00.844Z,24.40
2019-05-19T15:33:37.665Z,23.90
2019-05-19T15:36:01.503Z,23.30
2019-05-19T15:38:31.189Z,23.00
2019-05-19T15:41:00.622Z,22.60
2019-05-19T15:43:30.261Z,22.20
2019-05-19T15:45:59.915Z,21.90
2019-05-19T15:48:29.518Z,21.80
2019-05-19T15:50:59.145Z,21.70
2019-05-19T15:53:28.471Z,21.70
2019-05-19T15:55:57.809Z,21.50
2019-05-19T15:58:27.127Z,21.50
2019-05-19T16:00:56.805Z,21.30
2019-05-19T16:03:26.462Z,21.10
2019-05-19T16:05:56.076Z,20.80
2019-05-19T16:08:25.563Z,20.50
2019-05-19T16:10:55.200Z,20.30
2019-05-19T16:13:24.796Z,20.00
2019-05-19T16:15:54.433Z,19.80
2019-05-19T16:18:24.058Z,19.70
2019-05-19T16:20:53.371Z,19.60
2019-05-19T16:23:23.784Z,19.60
2019-05-19T16:25:53.083Z,19.50
2019-05-19T16:28:30.229Z,19.50
2019-05-19T16:30:53.731Z,19.50
2019-05-19T16:33:23.300Z,19.30
2019-05-19T16:35:52.706Z,19.30
2019-05-19T16:38:22.148Z,19.30
2019-05-19T16:40:51.549Z,19.20
2019-05-19T16:43:21.289Z,19.20
2019-05-19T16:45:50.868Z,19.10
2019-05-19T16:48:23.281Z,19.10
2019-05-19T16:50:51.842Z,19.20
2019-05-19T16:53:21.261Z,19.10
2019-05-19T16:55:50.939Z,19.00
2019-05-19T16:58:21.804Z,18.80
2019-05-19T17:00:52.876Z,18.70
2019-05-19T17:03:22.564Z,18.50
2019-05-19T17:05:52.195Z,18.40
2019-05-19T17:08:23.255Z,18.20
2019-05-19T17:10:52.594Z,18.10
2019-05-19T17:13:22.328Z,18.00
2019-05-19T17:15:52.034Z,17.90
2019-05-19T17:18:21.679Z,17.80
2019-05-19T17:20:51.362Z,17.80
2019-05-19T17:23:20.713Z,17.80
2019-05-19T17:25:50.046Z,17.90
2019-05-19T17:28:19.491Z,17.90
2019-05-19T17:30:49.153Z,17.80
2019-05-19T17:33:18.738Z,17.80
2019-05-19T17:35:48.332Z,17.70
2019-05-19T17:38:17.734Z,17.70
2019-05-19T17:40:47.146Z,17.70
2019-05-19T17:43:16.790Z,17.60
2019-05-19T17:45:46.914Z,17.60
2019-05-19T17:48:26.175Z,17.60
2019-05-19T17:50:48.825Z,17.60
2019-05-19T17:53:18.281Z,17.60
2019-05-19T17:55:49.887Z,17.50
2019-05-19T17:58:19.740Z,17.50
2019-05-19T18:00:51.015Z,17.40
2019-05-19T18:03:20.538Z,17.20
2019-05-19T18:05:50.213Z,17.10
2019-05-19T18:08:19.528Z,17.00
2019-05-19T18:10:49.180Z,17.00
2019-05-19T18:13:18.828Z,17.00
2019-05-19T18:15:48.681Z,16.90
2019-05-19T18:18:18.989Z,16.80
2019-05-19T18:20:48.427Z,16.80
2019-05-19T18:23:18.181Z,16.80
2019-05-19T18:28:53.146Z,16.80
2019-05-19T18:31:27.245Z,16.80
2019-05-19T18:34:02.691Z,16.70
2019-05-19T18:36:34.500Z,16.70
2019-05-19T18:39:12.489Z,16.70
2019-05-19T18:41:47.464Z,16.60
2019-05-19T18:44:17.102Z,16.50
2019-05-19T18:46:47.116Z,16.50
2019-05-19T18:49:16.724Z,16.40
2019-05-19T18:51:46.215Z,16.40
2019-05-19T18:54:16.578Z,16.40
2019-05-19T18:56:46.255Z,16.40
2019-05-19T18:59:15.720Z,16.40
2019-05-19T19:01:45.335Z,16.40
2019-05-19T19:04:15.909Z,16.30
2019-05-19T19:06:45.429Z,16.30
2019-05-19T19:09:14.763Z,16.30
2019-05-19T19:11:47.783Z,16.20
2019-05-19T19:14:21.406Z,16.20
2019-05-19T19:16:52.196Z,16.10
2019-05-19T19:19:22.068Z,16.10
2019-05-19T19:21:51.772Z,16.00
2019-05-19T19:24:21.264Z,16.00
2019-05-19T19:26:50.849Z,16.00
2019-05-19T19:29:20.269Z,16.00
2019-05-19T19:31:49.677Z,16.00
2019-05-19T19:34:19.534Z,16.00
2019-05-19T19:36:51.294Z,16.00
2019-05-19T19:39:21.278Z,16.00
2019-05-19T19:41:50.672Z,15.90
2019-05-19T19:44:20.263Z,15.90
2019-05-19T19:46:53.535Z,15.90
2019-05-19T19:49:21.093Z,15.90
2019-05-19T19:51:50.426Z,15.80
2019-05-19T19:54:19.739Z,15.80
2019-05-19T19:56:49.354Z,15.80
2019-05-19T19:59:18.823Z,15.80
2019-05-19T20:01:48.412Z,15.70
2019-05-19T20:04:18.044Z,15.70
2019-05-19T20:10:03.149Z,15.70
2019-05-19T20:12:32.503Z,15.70
2019-05-19T20:15:02.260Z,15.70
2019-05-19T20:17:31.670Z,15.60
2019-05-19T20:20:01.352Z,15.60
2019-05-19T20:22:30.981Z,15.50
2019-05-19T20:25:00.666Z,15.40
2019-05-19T20:27:30.196Z,15.30
2019-05-19T20:29:59.590Z,15.20
2019-05-19T20:32:29.170Z,15.10
2019-05-19T20:34:58.495Z,14.90
2019-05-19T20:37:27.835Z,14.90
2019-05-19T20:39:57.507Z,14.80
2019-05-19T20:42:26.962Z,14.70
2019-05-19T20:44:56.632Z,14.60
2019-05-19T20:47:26.314Z,14.50
2019-05-19T20:49:55.725Z,14.40
2019-05-19T20:52:25.384Z,14.30
2019-05-19T20:54:54.782Z,14.30
2019-05-19T21:00:18.705Z,14.10
2019-05-19T21:02:48.055Z,14.10
2019-05-19T21:05:17.727Z,14.00
2019-05-19T21:07:47.323Z,13.90
2019-05-19T21:10:17.098Z,13.90
2019-05-19T21:12:46.425Z,13.80
2019-05-19T21:15:15.870Z,13.70
2019-05-19T21:17:45.201Z,13.70
2019-05-19T21:20:14.921Z,13.60
2019-05-19T21:22:44.499Z,13.60
2019-05-19T21:25:13.883Z,13.60
2019-05-19T21:27:43.307Z,13.50
2019-05-19T21:30:13.220Z,13.50
2019-05-19T21:32:42.624Z,13.40
2019-05-19T21:35:12.284Z,13.30
2019-05-19T21:37:41.634Z,13.20
2019-05-19T21:40:11.099Z,13.10
2019-05-19T21:42:40.449Z,13.10
2019-05-19T21:45:10.386Z,13.00
2019-05-19T21:47:40.069Z,12.90
2019-05-19T21:50:10.287Z,12.80
2019-05-19T21:52:39.617Z,12.70
2019-05-19T21:55:09.302Z,12.70
2019-05-19T21:57:38.988Z,12.60
2019-05-19T22:00:12.383Z,12.70
2019-05-19T22:02:43.396Z,12.60
2019-05-19T22:05:13.043Z,12.60
2019-05-19T22:07:47.307Z,12.60
2019-05-19T22:10:16.758Z,12.50
2019-05-19T22:12:46.356Z,12.50
2019-05-19T22:15:15.803Z,12.40
2019-05-19T22:17:45.142Z,12.40
2019-05-19T22:20:14.573Z,12.30
2019-05-19T22:22:44.139Z,12.20
2019-05-19T22:25:13.608Z,12.20
2019-05-19T22:27:43.185Z,12.10
2019-05-19T22:30:13.002Z,12.10
2019-05-19T22:32:42.855Z,12.10
2019-05-19T22:35:15.231Z,12.00
2019-05-19T22:37:44.553Z,12.00
2019-05-19T22:40:15.116Z,12.00
2019-05-19T22:42:44.431Z,11.90
2019-05-19T22:45:13.906Z,11.90
2019-05-19T22:47:44.308Z,11.90
2019-05-19T22:50:14.743Z,11.90
2019-05-19T22:52:44.340Z,11.80
2019-05-19T22:55:14.015Z,11.80
2019-05-19T22:57:43.596Z,11.80
2019-05-19T23:00:14.871Z,11.80
2019-05-19T23:02:46.049Z,11.80
2019-05-19T23:05:16.126Z,11.80
2019-05-19T23:07:45.438Z,11.80
2019-05-19T23:10:15.522Z,11.80
2019-05-19T23:12:45.143Z,11.80
2019-05-19T23:15:16.611Z,11.80
2019-05-19T23:17:46.008Z,11.80
2019-05-19T23:20:15.696Z,11.80
2019-05-19T23:22:45.107Z,11.80
2019-05-19T23:25:14.656Z,11.80
2019-05-19T23:27:43.995Z,11.70
2019-05-19T23:30:13.703Z,11.60
2019-05-19T23:32:43.366Z,11.50
2019-05-19T23:35:13.120Z,11.50
2019-05-19T23:37:42.712Z,11.60
2019-05-19T23:40:12.290Z,11.60
2019-05-19T23:42:41.612Z,11.50
2019-05-19T23:45:11.134Z,11.50
2019-05-19T23:47:40.752Z,11.50
2019-05-19T23:50:10.802Z,11.60
2019-05-19T23:52:40.220Z,11.70
2019-05-19T23:55:10.253Z,11.70
2019-05-19T23:57:39.971Z,11.60
